Aviation Digital Data Service (ADDS)

Output produced by METARs form (1021 UTC 20 September 2019)
found at http://aviationweather.gov/metar/data/
 
METAR text: EGJB 200950Z 10018KT CAVOK 17/06 Q1021
Conditions at: EGJB (GUERNSEY AIRPORT, GB) observed 0950 UTC 20 September 2019
Temperature: 17.0°C (63°F)
Dewpoint: 6.0°C (43°F) [RH = 48%]
Pressure (altimeter): 30.15 inches Hg (1021.0 mb)
Winds: from the E (100 degrees) at 21 MPH (18 knots; 9.3 m/s)
Visibility: 6 or more miles (10+ km)
Ceiling: ceiling and visibility are OK
Clouds: unknown
Weather: no significant weather observed at this time

Forecast for: EGJB (GUERNSEY AIRPORT, GB)
Text: TAF EGJB 200758Z 2009/2018 10017KT CAVOK
Forecast period: 0900 to 1800 UTC 20 September 2019
Forecast type: FROM: standard forecast or significant change
Winds: from the E (100 degrees) at 20 MPH (17 knots; 8.7 m/s)
Visibility: 6 or more miles 10+ km)
Ceiling: unknown
Clouds: missing
Weather: NSW  (no significant weather)
Text: TEMPO 2009/2018 08018G28KT
Forecast period: 0900 to 1800 UTC 20 September 2019
Forecast type: TEMPORARY: The following changes expected for less than half the time period
Winds: from the E (80 degrees) at 21 MPH (18 knots; 9.3 m/s)
gusting to 32 MPH (28 knots; 14.4 m/s)
Visibility: missing
Ceiling: unknown
Clouds: missing
Weather: no significant weather forecast for this period